Ballston Center, New York
Current Conditions -  °F | °C
As of 3:51 PM on Sunday 23 Nov 2014 (Local Time) from KALB Reporting Station
Overcast Overcast  
Wind Chill: 52°   Ceiling: 8000
Heat Index: 52°   Visibility: 10mi
Dew Point: 29°   Wind: 5mph
Humidity: 41%   Direction: 180°S
Pressure: 30.07"   Gusts: NA
Location:  43.002°N, 73.8759°W
Report Text: KALB 232051Z 18004KT 10SM BKN080 OVC100 11/M02 A3007 RMK AO2 SLP185 T01111017 55009
Loading
Personal Weather Stations






























Interactive Weather Map New forecast layout! Learn more

10-Day Weather Forecast

Advertisements
Track Severe Weather on mobile